Time;durP1;ratioP1;P1;durP2;ratioP2;P2;SDS_P1;SDS_P2;PMS_P1;PMS_P2;Temp;Humidity;BMP_temperature;BMP_pressure;BME280_temperature;BME280_humidity;BME280_pressure;Samples;Min_cycle;Max_cycle;Signal;HPM_P1;HPM_P2
2022/06/16 00:00:37;;;;;;;0.00;0.00;;;18.10;99.90;;;;;;5046347;28;20602;-66
2022/06/16 00:03:06;;;;;;;0.00;0.00;;;18.00;1.00;;;;;;5052008;28;20350;-66
2022/06/16 00:05:37;;;;;;;0.00;0.00;;;18.10;99.90;;;;;;5031782;28;20206;-66
2022/06/16 00:08:06;;;;;;;0.00;0.00;;;18.10;99.90;;;;;;5027273;28;20210;-66
2022/06/16 00:10:38;;;;;;;0.00;0.00;;;18.20;99.90;;;;;;5044796;28;20202;-66
2022/06/16 00:13:06;;;;;;;0.00;0.00;;;18.00;1.00;;;;;;5043761;28;20237;-66
2022/06/16 00:15:33;;;;;;;0.00;0.00;;;17.70;1.00;;;;;;5025626;28;20636;-65
2022/06/16 00:18:01;;;;;;;0.00;0.00;;;17.70;11.90;;;;;;5046330;28;20206;-65
2022/06/16 00:20:29;;;;;;;0.00;0.00;;;17.70;99.90;;;;;;5048814;28;20446;-65
2022/06/16 00:22:57;;;;;;;0.00;0.00;;;17.70;99.90;;;;;;5048024;28;20732;-66
2022/06/16 00:25:25;;;;;;;0.00;0.00;;;17.80;99.90;;;;;;5017896;28;20223;-66
2022/06/16 00:27:54;;;;;;;0.00;0.00;;;17.80;50.10;;;;;;5036948;28;20191;-66
2022/06/16 00:30:22;;;;;;;0.05;0.05;;;17.70;99.90;;;;;;5043571;28;20453;-66
2022/06/16 00:32:49;;;;;;;0.00;0.00;;;17.70;99.90;;;;;;5054499;28;20249;-66
2022/06/16 00:35:17;;;;;;;0.00;0.00;;;17.80;99.90;;;;;;5039315;28;20622;-65
2022/06/16 00:37:45;;;;;;;0.00;0.00;;;17.60;99.90;;;;;;5044964;28;20198;-65
2022/06/16 00:40:13;;;;;;;0.00;0.00;;;17.60;99.90;;;;;;5040784;28;20205;-65
2022/06/16 00:42:43;;;;;;;0.00;0.00;;;17.50;1.00;;;;;;5050148;28;20230;-65
2022/06/16 00:45:49;;;;;;;0.00;0.00;;;17.50;1.00;;;;;;5037015;28;20254;-66
2022/06/16 00:48:21;;;;;;;0.00;0.00;;;17.40;1.00;;;;;;5038840;28;20198;-66
2022/06/16 00:50:54;;;;;;;0.00;0.00;;;17.20;1.00;;;;;;5041591;28;20673;-66
2022/06/16 00:53:22;;;;;;;0.00;0.00;;;17.20;1.00;;;;;;5034655;28;20219;-66
2022/06/16 00:55:50;;;;;;;0.00;0.00;;;17.20;1.00;;;;;;5030502;28;20451;-66
2022/06/16 00:58:19;;;;;;;0.00;0.00;;;17.10;24.70;;;;;;5042563;28;20245;-66
2022/06/16 01:00:50;;;;;;;0.00;0.00;;;17.20;1.00;;;;;;5039806;28;20199;-67
2022/06/16 01:06:02;;;;;;;0.00;0.00;;;17.50;1.00;;;;;;5041632;28;20279;-67
2022/06/16 01:08:30;;;;;;;0.00;0.00;;;17.50;1.00;;;;;;5039040;28;20197;-67
2022/06/16 01:11:04;;;;;;;0.00;0.00;;;17.60;1.00;;;;;;5034432;28;20237;-67
2022/06/16 01:13:42;;;;;;;0.00;0.00;;;17.50;1.00;;;;;;5046226;28;20225;-67
2022/06/16 01:16:19;;;;;;;0.00;0.00;;;17.30;1.00;;;;;;5028297;28;20238;-67
2022/06/16 01:18:55;;;;;;;0.00;0.00;;;17.20;1.00;;;;;;5032863;28;20244;-67
2022/06/16 01:21:31;;;;;;;0.10;0.10;;;17.20;1.00;;;;;;5042091;28;20553;-68
2022/06/16 01:24:19;;;;;;;0.00;0.00;;;17.20;1.00;;;;;;5048202;28;20280;-68
2022/06/16 01:27:23;;;;;;;0.00;0.00;;;17.10;78.90;;;;;;5041635;28;20203;-68
2022/06/16 01:29:58;;;;;;;0.00;0.00;;;16.80;99.90;;;;;;5051997;28;20198;-68
2022/06/16 01:32:39;;;;;;;0.00;0.00;;;16.60;1.00;;;;;;5041191;28;20724;-68
2022/06/16 01:35:14;;;;;;;0.00;0.00;;;16.50;1.00;;;;;;5040976;28;20329;-68
2022/06/16 01:37:52;;;;;;;0.10;0.10;;;16.40;1.00;;;;;;5020682;28;20203;-68
2022/06/16 01:40:24;;;;;;;0.00;0.00;;;16.30;1.00;;;;;;5019979;28;20206;-68
2022/06/16 01:42:59;;;;;;;0.00;0.00;;;16.30;1.00;;;;;;5020399;28;20772;-68
2022/06/16 01:45:35;;;;;;;0.00;0.00;;;16.30;1.00;;;;;;5036742;28;20230;-68
2022/06/16 01:48:07;;;;;;;0.00;0.00;;;16.40;1.00;;;;;;5039415;28;20234;-68
2022/06/16 01:50:40;;;;;;;0.00;0.00;;;16.40;1.00;;;;;;5034468;28;20256;-68
2022/06/16 01:53:12;;;;;;;0.00;0.00;;;16.30;1.00;;;;;;5039221;28;20246;-68
2022/06/16 01:55:46;;;;;;;0.05;0.05;;;16.40;1.00;;;;;;5039364;28;20206;-68
2022/06/16 01:58:18;;;;;;;0.00;0.00;;;16.60;1.00;;;;;;5013601;28;20203;-67
2022/06/16 02:00:51;;;;;;;0.00;0.00;;;16.60;1.00;;;;;;5034787;28;20202;-67
2022/06/16 02:03:28;;;;;;;0.00;0.00;;;16.40;1.00;;;;;;5020648;28;20231;-67
2022/06/16 02:05:59;;;;;;;0.00;0.00;;;16.60;1.00;;;;;;5027480;28;20194;-67
2022/06/16 02:08:31;;;;;;;0.10;0.10;;;16.60;1.00;;;;;;5039284;28;20217;-67
2022/06/16 02:11:05;;;;;;;0.00;0.00;;;16.30;1.00;;;;;;5048320;28;20559;-67
2022/06/16 02:13:37;;;;;;;0.00;0.00;;;16.20;1.00;;;;;;5025163;28;20224;-68
2022/06/16 02:16:11;;;;;;;0.00;0.00;;;16.20;1.00;;;;;;5036499;28;20547;-68
2022/06/16 02:18:42;;;;;;;0.10;0.10;;;16.20;1.00;;;;;;5035678;28;20198;-67
2022/06/16 02:21:16;;;;;;;0.00;0.00;;;16.20;16.20;;;;;;5034503;28;20258;-67
2022/06/16 02:23:45;;;;;;;0.00;0.00;;;16.10;32.10;;;;;;5037396;28;20233;-67
2022/06/16 02:26:14;;;;;;;0.00;0.00;;;16.30;1.00;;;;;;5052469;28;20803;-67
2022/06/16 02:28:45;;;;;;;0.00;0.00;;;16.40;1.00;;;;;;5050589;28;20200;-67
2022/06/16 02:31:26;;;;;;;0.10;0.10;;;16.10;84.60;;;;;;5046852;28;20198;-67
2022/06/16 02:34:05;;;;;;;0.10;0.10;;;16.10;99.90;;;;;;5022463;28;20223;-67
2022/06/16 02:36:48;;;;;;;0.00;0.00;;;16.10;99.90;;;;;;5042091;28;20671;-67
2022/06/16 02:39:28;;;;;;;0.10;0.10;;;16.20;99.90;;;;;;5051027;28;20210;-66
2022/06/16 02:42:02;;;;;;;0.00;0.00;;;16.20;86.40;;;;;;5044000;28;20240;-66
2022/06/16 02:44:37;;;;;;;0.00;0.00;;;16.10;99.90;;;;;;5031554;28;20268;-67
2022/06/16 02:47:16;;;;;;;0.00;0.00;;;16.00;99.90;;;;;;5036935;28;20578;-67
2022/06/16 02:49:54;;;;;;;0.00;0.00;;;16.00;99.90;;;;;;5031723;28;20241;-67
2022/06/16 02:52:31;;;;;;;0.05;0.05;;;16.00;99.90;;;;;;5038403;28;20567;-67
2022/06/16 02:55:08;;;;;;;0.03;0.03;;;16.10;99.90;;;;;;5030470;28;20242;-67
2022/06/16 02:57:43;;;;;;;0.00;0.00;;;16.20;99.90;;;;;;5041364;28;20212;-66
2022/06/16 03:00:16;;;;;;;0.00;0.00;;;16.20;99.90;;;;;;5030960;28;20731;-66
2022/06/16 03:02:46;;;;;;;0.00;0.00;;;16.20;99.90;;;;;;5028502;28;20192;-66
2022/06/16 03:05:16;;;;;;;0.00;0.00;;;16.20;99.90;;;;;;5028685;28;20309;-66
2022/06/16 03:07:45;;;;;;;0.00;0.00;;;16.20;99.90;;;;;;5039570;28;20203;-67
2022/06/16 03:13:07;;;;;;;0.00;0.00;;;16.20;99.90;;;;;;5023918;28;20705;-66
2022/06/16 03:15:34;;;;;;;0.00;0.00;;;16.10;99.90;;;;;;5041349;28;20673;-66
2022/06/16 03:18:04;;;;;;;0.10;0.10;;;16.00;99.90;;;;;;5047037;28;20198;-66
2022/06/16 03:20:32;;;;;;;0.10;0.10;;;16.10;99.90;;;;;;5048482;28;20215;-67
2022/06/16 03:23:00;;;;;;;0.10;0.10;;;16.10;99.90;;;;;;5039363;28;20596;-67
2022/06/16 03:25:29;;;;;;;0.00;0.00;;;16.20;99.90;;;;;;5042577;28;20218;-66
2022/06/16 03:27:58;;;;;;;0.00;0.00;;;16.20;99.90;;;;;;5044856;28;20207;-67
2022/06/16 03:30:30;;;;;;;0.00;0.00;;;16.20;99.90;;;;;;5048552;28;20221;-67
2022/06/16 03:32:59;;;;;;;0.10;0.10;;;16.20;99.90;;;;;;5027411;28;20227;-68
2022/06/16 03:35:28;;;;;;;0.00;0.00;;;16.20;99.90;;;;;;5038110;28;20229;-67
2022/06/16 03:37:59;;;;;;;0.00;0.00;;;16.30;99.90;;;;;;5022981;28;20290;-67
2022/06/16 03:40:27;;;;;;;0.00;0.00;;;16.40;99.90;;;;;;5046164;28;20210;-67
2022/06/16 03:42:56;;;;;;;0.10;0.10;;;16.50;62.00;;;;;;5018981;28;20196;-67
2022/06/16 03:45:27;;;;;;;0.00;0.00;;;16.40;24.40;;;;;;5030557;28;20310;-67
2022/06/16 03:47:55;;;;;;;0.00;0.00;;;16.50;23.30;;;;;;5038404;28;20228;-67
2022/06/16 03:50:24;;;;;;;0.00;0.00;;;16.50;10.90;;;;;;5025230;28;20745;-67
2022/06/16 03:52:55;;;;;;;0.00;0.00;;;16.50;14.40;;;;;;5039688;28;20198;-67
2022/06/16 03:55:24;;;;;;;0.00;0.00;;;16.50;49.00;;;;;;5049673;28;20225;-67
2022/06/16 03:57:52;;;;;;;0.08;0.08;;;16.40;61.20;;;;;;5044659;28;20294;-67
2022/06/16 04:00:23;;;;;;;0.00;0.00;;;16.50;51.80;;;;;;5027783;28;20546;-67
2022/06/16 04:05:45;;;;;;;0.00;0.00;;;16.40;99.90;;;;;;5040855;28;20281;-67
2022/06/16 04:08:19;;;;;;;0.00;0.00;;;16.40;99.90;;;;;;5039026;28;20202;-67
2022/06/16 04:10:49;;;;;;;0.00;0.00;;;16.50;71.30;;;;;;5030297;28;20210;-67
2022/06/16 04:13:17;;;;;;;0.00;0.00;;;16.60;14.80;;;;;;5040503;28;20211;-67
2022/06/16 04:15:54;;;;;;;0.00;0.00;;;16.50;10.10;;;;;;5042026;28;20211;-67
2022/06/16 04:18:23;;;;;;;0.00;0.00;;;16.70;1.00;;;;;;5032697;28;20290;-67
2022/06/16 04:20:51;;;;;;;0.00;0.00;;;16.70;1.00;;;;;;5033301;28;20203;-68
2022/06/16 04:23:45;;;;;;;0.08;0.08;;;16.70;1.00;;;;;;5033823;28;20583;-67
2022/06/16 04:26:15;;;;;;;0.00;0.00;;;16.80;1.00;;;;;;5019832;28;20204;-67
2022/06/16 04:28:47;;;;;;;0.00;0.00;;;16.80;1.00;;;;;;5047181;28;20680;-68
2022/06/16 04:31:16;;;;;;;0.00;0.00;;;16.90;1.00;;;;;;5048415;28;20289;-68
2022/06/16 04:33:45;;;;;;;0.00;0.00;;;16.80;1.00;;;;;;5041231;28;20229;-69
2022/06/16 04:36:15;;;;;;;0.00;0.00;;;16.70;1.00;;;;;;5037956;28;20245;-69
2022/06/16 04:38:55;;;;;;;0.00;0.00;;;16.60;1.00;;;;;;5013458;28;20200;-68
2022/06/16 04:41:23;;;;;;;0.00;0.00;;;16.60;38.40;;;;;;5032707;28;20210;-69
2022/06/16 04:43:52;;;;;;;0.10;0.10;;;16.60;78.70;;;;;;5039220;28;20322;-69
2022/06/16 04:46:21;;;;;;;0.00;0.00;;;16.60;99.90;;;;;;5040576;28;20221;-69
2022/06/16 04:48:52;;;;;;;0.00;0.00;;;16.60;99.90;;;;;;5032570;28;20567;-68
2022/06/16 04:51:20;;;;;;;0.00;0.00;;;16.70;97.90;;;;;;5033069;28;20226;-67
2022/06/16 04:53:50;;;;;;;0.00;0.00;;;16.80;39.20;;;;;;5032415;28;20249;-67
2022/06/16 04:56:26;;;;;;;0.00;0.00;;;16.80;1.00;;;;;;5034020;28;20290;-68
2022/06/16 04:59:03;;;;;;;0.00;0.00;;;17.00;1.00;;;;;;5037949;28;20704;-68
2022/06/16 05:01:41;;;;;;;0.00;0.00;;;17.20;1.00;;;;;;5037128;28;20206;-68
2022/06/16 05:04:15;;;;;;;0.00;0.00;;;17.40;1.00;;;;;;5038659;28;20207;-68
2022/06/16 05:07:06;;;;;;;0.00;0.00;;;17.50;1.00;;;;;;5050904;28;20207;-68
2022/06/16 05:09:42;;;;;;;0.00;0.00;;;17.50;1.00;;;;;;5047052;28;20203;-68
2022/06/16 05:12:34;;;;;;;0.00;0.00;;;17.50;1.00;;;;;;5042200;28;20199;-68
2022/06/16 05:15:20;;;;;;;0.00;0.00;;;17.40;1.00;;;;;;5037157;28;20301;-68
2022/06/16 05:17:48;;;;;;;0.00;0.00;;;17.50;1.00;;;;;;5035667;28;20195;-69
2022/06/16 05:20:33;;;;;;;0.00;0.00;;;17.50;1.00;;;;;;5032603;28;20850;-69
2022/06/16 05:23:13;;;;;;;0.00;0.00;;;17.60;1.00;;;;;;5037655;28;20208;-69
2022/06/16 05:26:03;;;;;;;0.00;0.00;;;17.80;1.00;;;;;;5033068;28;20230;-68
2022/06/16 05:29:11;;;;;;;0.00;0.00;;;17.90;1.00;;;;;;5014883;28;20675;-68
2022/06/16 05:32:08;;;;;;;0.00;0.00;;;17.60;1.00;;;;;;5048500;28;20206;-69
2022/06/16 05:34:54;;;;;;;0.00;0.00;;;17.50;1.00;;;;;;5032953;28;20229;-68
2022/06/16 05:37:34;;;;;;;0.00;0.00;;;17.50;1.00;;;;;;5050500;28;20210;-68
2022/06/16 05:40:20;;;;;;;0.00;0.00;;;17.40;1.00;;;;;;5053185;28;20205;-68
2022/06/16 05:43:14;;;;;;;0.00;0.00;;;17.50;1.00;;;;;;5052112;28;20202;-69
2022/06/16 05:45:52;;;;;;;0.00;0.00;;;17.50;1.00;;;;;;5052978;28;20190;-69
2022/06/16 05:48:24;;;;;;;0.00;0.00;;;17.60;1.00;;;;;;5051662;28;20206;-68
2022/06/16 05:51:05;;;;;;;0.00;0.00;;;17.70;1.00;;;;;;5051861;28;20438;-68
2022/06/16 05:53:38;;;;;;;0.00;0.00;;;17.80;1.00;;;;;;5051608;28;20260;-68
2022/06/16 05:56:12;;;;;;;0.10;0.10;;;17.90;1.00;;;;;;5053296;28;20285;-68
2022/06/16 05:58:42;;;;;;;0.00;0.00;;;18.10;1.00;;;;;;5052942;28;20246;-68
2022/06/16 06:01:13;;;;;;;0.00;0.00;;;18.30;99.90;;;;;;5051781;28;20693;-70
2022/06/16 06:03:43;;;;;;;0.00;0.00;;;18.40;99.90;;;;;;5051987;28;20218;-68
2022/06/16 06:06:12;;;;;;;0.00;0.00;;;18.60;99.90;;;;;;5051934;28;20201;-68
2022/06/16 06:17:08;;;;;;;0.00;0.00;;;19.20;99.90;;;;;;5051193;28;20198;-69
2022/06/16 06:19:36;;;;;;;0.00;0.00;;;19.20;99.90;;;;;;5052429;28;20190;-69
2022/06/16 06:22:10;;;;;;;0.00;0.00;;;19.30;99.90;;;;;;5052297;28;20194;-69
2022/06/16 06:24:41;;;;;;;0.00;0.00;;;19.50;1.00;;;;;;5051306;28;20655;-69
2022/06/16 06:27:20;;;;;;;0.00;0.00;;;19.70;1.00;;;;;;5051337;28;20897;-69
2022/06/16 06:29:49;;;;;;;0.00;0.00;;;19.90;99.90;;;;;;5050811;28;20289;-69
2022/06/16 06:32:21;;;;;;;0.00;0.00;;;19.90;96.60;;;;;;5052178;28;20190;-69
2022/06/16 06:34:51;;;;;;;0.00;0.00;;;20.00;1.00;;;;;;5050806;28;20223;-69
2022/06/16 06:37:21;;;;;;;0.00;0.00;;;20.10;1.00;;;;;;5051974;28;20247;-70
2022/06/16 06:39:50;;;;;;;0.00;0.00;;;20.20;99.90;;;;;;5050632;28;20202;-69
2022/06/16 06:42:19;;;;;;;0.00;0.00;;;20.40;99.90;;;;;;5052082;28;20551;-70
2022/06/16 06:44:47;;;;;;;0.00;0.00;;;20.50;1.00;;;;;;5050127;28;20225;-68
2022/06/16 06:47:19;;;;;;;0.00;0.00;;;20.60;99.90;;;;;;5052134;28;20204;-69
2022/06/16 06:49:47;;;;;;;0.00;0.00;;;20.60;99.90;;;;;;5052319;28;20602;-68
2022/06/16 06:52:15;;;;;;;0.00;0.00;;;20.80;99.90;;;;;;5052005;28;20194;-68
2022/06/16 06:54:45;;;;;;;0.00;0.00;;;20.70;99.90;;;;;;5075138;22;20596;-69
2022/06/16 06:57:14;;;;;;;0.00;0.00;;;20.80;1.00;;;;;;5051509;28;20195;-69
2022/06/16 06:59:42;;;;;;;0.00;0.00;;;20.90;1.00;;;;;;5051635;28;20260;-69
2022/06/16 07:02:11;;;;;;;0.00;0.00;;;20.90;1.00;;;;;;5051691;28;20256;-69
2022/06/16 07:04:41;;;;;;;0.00;0.00;;;21.00;1.00;;;;;;5051739;28;20213;-69
2022/06/16 07:07:11;;;;;;;0.00;0.00;;;21.00;1.00;;;;;;5052044;28;20200;-69
2022/06/16 07:09:39;;;;;;;0.00;0.00;;;21.10;1.00;;;;;;5051642;28;20198;-69
2022/06/16 07:12:13;;;;;;;0.00;0.00;;;21.10;1.00;;;;;;5050907;28;20208;-68
2022/06/16 07:14:43;;;;;;;0.00;0.00;;;21.10;99.90;;;;;;5050742;28;20562;-69
2022/06/16 07:17:11;;;;;;;0.00;0.00;;;21.20;99.90;;;;;;5051354;28;20269;-69
2022/06/16 07:19:41;;;;;;;0.00;0.00;;;21.20;99.90;;;;;;5051287;28;20202;-68
2022/06/16 07:22:09;;;;;;;0.00;0.00;;;21.20;99.90;;;;;;5051460;28;20661;-69
2022/06/16 07:24:38;;;;;;;0.00;0.00;;;21.20;99.90;;;;;;5051800;28;20218;-69
2022/06/16 07:27:07;;;;;;;0.00;0.00;;;21.30;99.90;;;;;;5051781;28;20197;-69
2022/06/16 07:29:35;;;;;;;0.00;0.00;;;21.30;99.90;;;;;;5051257;28;20198;-69
2022/06/16 07:32:10;;;;;;;0.00;0.00;;;21.30;99.90;;;;;;5051330;28;20212;-69
2022/06/16 07:34:41;;;;;;;0.00;0.00;;;21.30;99.90;;;;;;5051182;28;20619;-69
2022/06/16 07:37:09;;;;;;;0.00;0.00;;;21.30;99.90;;;;;;5051466;28;20252;-69
2022/06/16 07:39:37;;;;;;;0.00;0.00;;;21.30;99.90;;;;;;5051575;28;20622;-69
2022/06/16 07:42:05;;;;;;;0.00;0.00;;;21.30;99.90;;;;;;5051528;28;20209;-69
2022/06/16 07:44:34;;;;;;;0.00;0.00;;;21.30;99.90;;;;;;5051446;28;20319;-68
2022/06/16 07:47:01;;;;;;;0.00;0.00;;;21.40;99.90;;;;;;5051305;28;20268;-69
2022/06/16 07:49:29;;;;;;;0.00;0.00;;;21.40;99.90;;;;;;5051284;28;20197;-69
2022/06/16 07:51:59;;;;;;;0.00;0.00;;;21.40;99.90;;;;;;5051245;28;20237;-68
2022/06/16 07:54:28;;;;;;;0.00;0.00;;;21.40;99.90;;;;;;5051068;28;20222;-69
2022/06/16 07:57:17;;;;;;;0.00;0.00;;;21.40;99.90;;;;;;5039806;28;20215;-69
2022/06/16 07:59:52;;;;;;;0.00;0.00;;;21.40;99.90;;;;;;5045059;28;20683;-68
2022/06/16 08:02:21;;;;;;;0.00;0.00;;;21.30;99.90;;;;;;5037861;28;20206;-68
2022/06/16 08:04:49;;;;;;;0.00;0.00;;;21.20;99.90;;;;;;5035071;28;20365;-69
2022/06/16 08:07:18;;;;;;;0.00;0.00;;;21.20;99.90;;;;;;5035943;28;20700;-69
2022/06/16 08:09:46;;;;;;;0.00;0.00;;;21.10;99.90;;;;;;5034561;28;20191;-69
2022/06/16 08:12:15;;;;;;;0.00;0.00;;;21.10;99.90;;;;;;5035798;28;20249;-69
2022/06/16 08:14:46;;;;;;;0.00;0.00;;;21.10;99.90;;;;;;5034647;28;20215;-69
2022/06/16 08:17:17;;;;;;;0.00;0.00;;;21.10;1.00;;;;;;5035755;28;20218;-69
2022/06/16 08:19:45;;;;;;;0.00;0.00;;;21.00;1.00;;;;;;5035608;28;20202;-68
2022/06/16 08:22:13;;;;;;;0.00;0.00;;;20.90;99.90;;;;;;5036715;28;20199;-70
2022/06/16 08:24:43;;;;;;;0.00;0.00;;;20.80;1.00;;;;;;5035086;28;20223;-69
2022/06/16 08:27:11;;;;;;;0.00;0.00;;;20.60;1.00;;;;;;5035254;28;20206;-69
2022/06/16 08:29:42;;;;;;;0.00;0.00;;;20.40;1.00;;;;;;5034903;28;20282;-69
2022/06/16 08:32:12;;;;;;;0.00;0.00;;;20.00;1.00;;;;;;5034551;28;20199;-69
2022/06/16 08:34:40;;;;;;;0.00;0.00;;;19.60;1.00;;;;;;5034498;28;20219;-69
2022/06/16 08:37:08;;;;;;;0.00;0.00;;;19.50;99.90;;;;;;5033608;28;20227;-69
2022/06/16 08:39:36;;;;;;;0.00;0.00;;;19.60;99.90;;;;;;5034485;28;20563;-69
2022/06/16 08:42:11;;;;;;;0.00;0.00;;;19.70;99.90;;;;;;5034306;28;20203;-69
2022/06/16 08:44:42;;;;;;;0.00;0.00;;;19.70;99.90;;;;;;5049901;28;20230;-69
2022/06/16 08:47:17;;;;;;;0.00;0.00;;;19.70;13.70;;;;;;5034778;28;20550;-70
2022/06/16 08:49:54;;;;;;;0.00;0.00;;;19.60;99.90;;;;;;5036145;28;20241;-69
2022/06/16 08:52:32;;;;;;;0.00;0.00;;;19.50;1.00;;;;;;5034685;28;20684;-70
2022/06/16 08:55:07;;;;;;;0.00;0.00;;;19.50;1.00;;;;;;5033198;28;20237;-69
2022/06/16 08:57:49;;;;;;;0.00;0.00;;;19.70;1.00;;;;;;5034697;28;20272;-69
2022/06/16 09:00:21;;;;;;;0.00;0.00;;;19.90;99.90;;;;;;5043008;28;20203;-69
2022/06/16 09:02:59;;;;;;;0.00;0.00;;;20.00;99.90;;;;;;5034001;28;20256;-70
2022/06/16 09:05:37;;;;;;;0.00;0.00;;;20.20;99.90;;;;;;5034094;28;20226;-70
2022/06/16 09:08:17;;;;;;;0.00;0.00;;;20.40;99.90;;;;;;5053769;28;20764;-69
2022/06/16 09:10:52;;;;;;;0.00;0.00;;;20.40;99.90;;;;;;5053839;28;20190;-69
2022/06/16 09:13:40;;;;;;;0.00;0.00;;;20.40;99.90;;;;;;5054092;28;20204;-70
2022/06/16 09:16:22;;;;;;;0.00;0.00;;;20.50;1.00;;;;;;5053491;28;20218;-70
2022/06/16 09:19:08;;;;;;;0.00;0.00;;;20.50;1.00;;;;;;5053670;28;20200;-69
2022/06/16 09:21:43;;;;;;;0.00;0.00;;;20.60;1.00;;;;;;5053772;28;20720;-69
2022/06/16 09:24:40;;;;;;;0.00;0.00;;;20.70;1.00;;;;;;5053786;28;20554;-69
2022/06/16 09:27:12;;;;;;;0.00;0.00;;;20.90;1.00;;;;;;5053303;28;20633;-69
2022/06/16 09:29:47;;;;;;;0.00;0.00;;;21.10;1.00;;;;;;5046567;28;20206;-69
2022/06/16 09:32:24;;;;;;;0.00;0.00;;;21.20;99.90;;;;;;5034701;28;20202;-69
2022/06/16 09:34:57;;;;;;;0.00;0.00;;;21.30;1.00;;;;;;5033266;28;20211;-69
2022/06/16 09:37:36;;;;;;;0.00;0.00;;;21.60;1.00;;;;;;5041381;28;20260;-68
2022/06/16 09:40:08;;;;;;;0.00;0.00;;;21.70;99.90;;;;;;5053121;28;20198;-69
2022/06/16 09:42:42;;;;;;;0.00;0.00;;;21.90;1.00;;;;;;5054624;28;20194;-69
2022/06/16 09:45:17;;;;;;;0.00;0.00;;;22.10;99.90;;;;;;5053970;28;20272;-69
2022/06/16 09:47:50;;;;;;;0.00;0.00;;;22.20;1.00;;;;;;5053039;28;20182;-69
2022/06/16 09:50:26;;;;;;;0.00;0.00;;;22.40;1.00;;;;;;5053538;28;20191;-69
2022/06/16 09:53:01;;;;;;;0.00;0.00;;;22.40;1.00;;;;;;5046453;28;20202;-68
2022/06/16 09:55:35;;;;;;;0.00;0.00;;;22.50;99.90;;;;;;5036175;28;20292;-69
2022/06/16 09:58:13;;;;;;;0.00;0.00;;;22.60;1.00;;;;;;5033132;28;20223;-69
2022/06/16 10:00:43;;;;;;;0.00;0.00;;;22.70;1.00;;;;;;5044170;28;20227;-69
2022/06/16 10:03:21;;;;;;;0.00;0.00;;;22.80;1.00;;;;;;5054642;28;20232;-69
2022/06/16 10:06:02;;;;;;;0.00;0.00;;;22.90;1.00;;;;;;5053689;28;20252;-69
2022/06/16 10:08:39;;;;;;;0.00;0.00;;;23.00;1.00;;;;;;5053440;28;20244;-69
2022/06/16 10:11:14;;;;;;;0.00;0.00;;;23.10;1.00;;;;;;5054961;28;20201;-69
2022/06/16 10:13:48;;;;;;;0.00;0.00;;;23.10;1.00;;;;;;5054426;28;20198;-68
2022/06/16 10:16:24;;;;;;;0.00;0.00;;;23.20;1.00;;;;;;5052096;28;20228;-69
2022/06/16 10:18:52;;;;;;;0.00;0.00;;;23.30;1.00;;;;;;5052182;28;20248;-68
2022/06/16 10:21:21;;;;;;;0.00;0.00;;;23.60;99.90;;;;;;5052789;28;20194;-69
2022/06/16 10:23:52;;;;;;;0.00;0.00;;;23.80;99.90;;;;;;5052278;28;20206;-69
2022/06/16 10:26:20;;;;;;;0.00;0.00;;;24.00;99.90;;;;;;5052499;28;20228;-69
2022/06/16 10:29:03;;;;;;;0.00;0.00;;;24.20;99.90;;;;;;5051998;28;20198;-69
2022/06/16 10:31:39;;;;;;;0.00;0.00;;;24.30;99.90;;;;;;5052244;28;20205;-69
2022/06/16 10:34:21;;;;;;;0.00;0.00;;;24.30;99.90;;;;;;5052394;28;20218;-69
2022/06/16 10:36:57;;;;;;;0.00;0.00;;;24.30;99.90;;;;;;5048917;28;20218;-69
2022/06/16 10:39:32;;;;;;;0.00;0.00;;;24.20;99.90;;;;;;5041646;28;20256;-69
2022/06/16 10:42:05;;;;;;;0.00;0.00;;;24.20;99.90;;;;;;5032748;28;20214;-69
2022/06/16 10:44:34;;;;;;;0.00;0.00;;;24.30;99.90;;;;;;5032263;28;20215;-69
2022/06/16 10:47:07;;;;;;;0.00;0.00;;;24.40;99.90;;;;;;5051276;28;20198;-69
2022/06/16 10:49:39;;;;;;;0.00;0.00;;;24.60;99.90;;;;;;5055243;28;20190;-69
2022/06/16 10:52:11;;;;;;;0.00;0.00;;;24.80;99.90;;;;;;5054527;28;20202;-69
2022/06/16 10:54:55;;;;;;;0.00;0.00;;;25.10;53.30;;;;;;5053890;28;20238;-71
2022/06/16 10:57:26;;;;;;;0.00;0.00;;;25.30;49.90;;;;;;5051731;28;20218;-68
2022/06/16 11:00:03;;;;;;;0.00;0.00;;;25.50;22.50;;;;;;5051641;28;20199;-68
2022/06/16 11:02:35;;;;;;;0.00;0.00;;;25.60;11.10;;;;;;5052095;28;20209;-68
2022/06/16 11:05:10;;;;;;;0.00;0.00;;;25.70;1.00;;;;;;5051879;28;20218;-69
2022/06/16 11:07:40;;;;;;;0.00;0.00;;;25.70;1.00;;;;;;5051493;28;20259;-69
2022/06/16 11:10:12;;;;;;;0.00;0.00;;;25.80;1.00;;;;;;5051815;28;20256;-69
2022/06/16 11:12:46;;;;;;;0.00;0.00;;;25.70;1.00;;;;;;5052376;28;20204;-69
2022/06/16 11:15:23;;;;;;;0.00;0.00;;;25.70;1.00;;;;;;5051768;28;20627;-68
2022/06/16 11:17:57;;;;;;;0.00;0.00;;;25.60;1.00;;;;;;5051309;28;20618;-69
2022/06/16 11:20:32;;;;;;;0.00;0.00;;;25.50;1.00;;;;;;5046221;28;20257;-69
2022/06/16 11:23:01;;;;;;;0.00;0.00;;;25.50;1.00;;;;;;5033478;28;20194;-69
2022/06/16 11:25:32;;;;;;;0.00;0.00;;;25.30;1.00;;;;;;5031259;28;20254;-68
2022/06/16 11:28:04;;;;;;;0.00;0.00;;;25.30;1.00;;;;;;5031289;28;20203;-69
2022/06/16 11:30:36;;;;;;;0.00;0.00;;;25.50;1.00;;;;;;5031405;28;20253;-69
2022/06/16 11:34:06;;;;;;;0.00;0.00;;;25.80;1.00;;;;;;5030991;28;20215;-69
2022/06/16 11:36:17;;;;;;;0.00;0.00;;;25.90;1.00;;;;;;5033322;28;20206;-68
2022/06/16 11:38:51;;;;;;;0.00;0.00;;;26.00;1.00;;;;;;5035240;28;20222;-69
2022/06/16 11:41:21;;;;;;;0.00;0.00;;;26.10;1.00;;;;;;5035522;28;20199;-69
2022/06/16 11:44:09;;;;;;;0.00;0.00;;;26.10;1.00;;;;;;5035300;28;20199;-69
2022/06/16 11:46:44;;;;;;;0.00;0.00;;;26.20;1.00;;;;;;5035299;28;20213;-69
2022/06/16 11:49:29;;;;;;;0.00;0.00;;;26.20;1.00;;;;;;5035422;28;20194;-69
2022/06/16 11:52:05;;;;;;;0.00;0.00;;;26.40;1.00;;;;;;5034962;28;20206;-69
2022/06/16 11:54:44;;;;;;;0.00;0.00;;;26.60;1.00;;;;;;5035089;28;20233;-68
2022/06/16 11:57:24;;;;;;;0.00;0.00;;;26.80;1.00;;;;;;5035029;28;20641;-68
2022/06/16 12:00:05;;;;;;;0.00;0.00;;;27.00;1.00;;;;;;5034806;28;20206;-68
2022/06/16 12:03:06;;;;;;;0.00;0.00;;;27.20;1.00;;;;;;5034885;28;20195;-67
2022/06/16 12:05:39;;;;;;;0.00;0.00;;;27.40;1.00;;;;;;5028513;28;20646;-68
2022/06/16 12:08:36;;;;;;;0.00;0.00;;;27.40;1.00;;;;;;5034831;28;20557;-68
2022/06/16 12:11:10;;;;;;;0.00;0.00;;;27.50;1.00;;;;;;5034987;28;20256;-68
2022/06/16 12:13:49;;;;;;;0.00;0.00;;;27.40;1.00;;;;;;5035034;28;20238;-67
2022/06/16 12:16:23;;;;;;;0.00;0.00;;;27.40;1.00;;;;;;5035085;28;20245;-68
2022/06/16 12:19:01;;;;;;;0.00;0.00;;;27.40;1.00;;;;;;5034457;28;20250;-68
2022/06/16 12:21:36;;;;;;;0.00;0.00;;;27.50;1.00;;;;;;5035230;28;20206;-68
2022/06/16 12:24:13;;;;;;;0.00;0.00;;;27.60;1.00;;;;;;5034412;28;20226;-68
2022/06/16 12:26:52;;;;;;;0.00;0.00;;;27.70;1.00;;;;;;5034635;28;20321;-68
2022/06/16 12:29:28;;;;;;;0.00;0.00;;;27.80;14.60;;;;;;5034580;28;20191;-67
2022/06/16 12:32:06;;;;;;;0.00;0.00;;;27.90;5.30;;;;;;5035855;28;20665;-68
2022/06/16 12:34:43;;;;;;;0.00;0.00;;;28.00;7.40;;;;;;5034805;28;20215;-68
2022/06/16 12:37:18;;;;;;;0.00;0.00;;;28.00;13.40;;;;;;5036100;28;20194;-68
2022/06/16 12:39:57;;;;;;;0.00;0.00;;;28.10;28.30;;;;;;5034095;28;20199;-68
2022/06/16 12:42:31;;;;;;;0.00;0.00;;;28.10;92.00;;;;;;5034646;28;20206;-69
2022/06/16 12:45:06;;;;;;;0.00;0.00;;;28.10;74.20;;;;;;5034550;28;20219;-68
2022/06/16 12:47:38;;;;;;;0.00;0.00;;;28.00;99.90;;;;;;5034024;28;20202;-68
2022/06/16 12:50:10;;;;;;;0.00;0.00;;;28.20;99.90;;;;;;5033104;28;20265;-68
2022/06/16 12:52:43;;;;;;;0.00;0.00;;;28.30;99.90;;;;;;5034434;28;20202;-68
2022/06/16 12:55:16;;;;;;;0.00;0.00;;;28.20;99.90;;;;;;5034493;28;20607;-68
2022/06/16 12:57:50;;;;;;;0.00;0.00;;;28.10;96.90;;;;;;5033756;28;20192;-67
2022/06/16 13:00:20;;;;;;;0.00;0.00;;;28.00;99.90;;;;;;5034095;28;20249;-68
2022/06/16 13:03:00;;;;;;;0.00;0.00;;;28.00;96.50;;;;;;5033922;28;20203;-68
2022/06/16 13:05:29;;;;;;;0.00;0.00;;;28.00;94.70;;;;;;5033961;28;20222;-68
2022/06/16 13:08:00;;;;;;;0.00;0.00;;;28.00;64.10;;;;;;5033648;28;20608;-70
2022/06/16 13:10:33;;;;;;;0.00;0.00;;;28.00;99.90;;;;;;5034226;28;20545;-67
2022/06/16 13:13:02;;;;;;;0.00;0.00;;;27.90;99.90;;;;;;5033954;28;20566;-69
2022/06/16 13:15:33;;;;;;;0.00;0.00;;;27.90;93.90;;;;;;5033848;28;20218;-68
2022/06/16 13:18:08;;;;;;;0.00;0.00;;;27.90;98.80;;;;;;5033696;28;20690;-68
2022/06/16 13:20:36;;;;;;;0.00;0.00;;;27.80;99.90;;;;;;5034250;28;20202;-67
2022/06/16 13:23:12;;;;;;;0.00;0.00;;;27.70;99.90;;;;;;5033659;28;20229;-68
2022/06/16 13:25:46;;;;;;;0.00;0.00;;;27.60;99.90;;;;;;5034011;28;20218;-69
2022/06/16 13:28:18;;;;;;;0.00;0.00;;;27.50;99.90;;;;;;5035849;28;20218;-69
2022/06/16 13:31:13;;;;;;;0.00;0.00;;;27.60;99.90;;;;;;5037343;28;20609;-68
2022/06/16 13:33:51;;;;;;;0.00;0.00;;;27.70;99.90;;;;;;5037163;28;20202;-68
2022/06/16 13:36:51;;;;;;;0.00;0.00;;;27.60;99.90;;;;;;5038484;28;20203;-67
2022/06/16 13:39:56;;;;;;;0.00;0.00;;;27.60;99.90;;;;;;5037426;28;20230;-68
2022/06/16 13:42:43;;;;;;;0.00;0.00;;;27.60;99.90;;;;;;5033928;28;20198;-66